Terminal Aerodrome Forecast
Issued by NWS Melbourne, FL

Home | Current Version | Previous Version | Text Only | Print | Product List | Glossary On
Versions: 1 2 3 4 5 6 7 8 9 10 11 12 13 14 15 16 17 18 19 20 21 22 23 24 25 26 27 28
239
FTUS42 KMLB 232340
TAFMCO
TAF
KMCO 232340Z 2400/2424 14008KT P6SM FEW050 SCT090 SCT250
     FM240900 14004KT P6SM FEW015 SCT250
     FM241400 17007KT P6SM SCT030 SCT250
     FM242000 13009KT P6SM VCTS SCT040CB SCT250=

USA.gov is the U.S. government's official web portal to all federal, state and local government web resources and services.